Terminal Aerodrome Forecast
Issued by NWS Wilmington, OH

Home | Current Version | Previous Version | Text Only | Print | Product List | Glossary On
Versions: 1 2 3 4 5 6 7 8 9 10 11 12 13 14 15 16 17 18 19 20 21 22 23 24 25 26 27
000
FTUS41 KILN 201727
TAFCVG
TAF
KCVG 201727Z 2018/2124 13006KT P6SM FEW020 SCT250
     FM211200 17008KT P6SM FEW035 OVC150
     FM211800 21010KT P6SM BKN035 OVC120
     FM212100 20007KT P6SM VCSH OVC035=

USA.gov is the U.S. government's official web portal to all federal, state and local government web resources and services.